createdAt,value
2023-03-02T00:00:01.426Z,1.00
2023-03-02T00:01:05.012Z,1.14
2023-03-02T00:02:09.204Z,2.00
2023-03-02T00:03:12.594Z,2.00
2023-03-02T00:04:15.777Z,1.43
2023-03-02T00:05:19.159Z,1.43
2023-03-02T00:06:22.648Z,2.00
2023-03-02T00:07:25.849Z,1.57
2023-03-02T00:08:29.262Z,1.00
2023-03-02T00:09:32.554Z,1.00
2023-03-02T00:10:36.090Z,1.43
2023-03-02T00:11:39.597Z,2.00
2023-03-02T00:12:43.080Z,2.00
2023-03-02T00:13:46.558Z,2.00
2023-03-02T00:14:49.965Z,1.43
2023-03-02T00:15:53.391Z,1.57
2023-03-02T00:16:56.731Z,1.57
2023-03-02T00:17:59.797Z,1.14
2023-03-02T00:19:03.095Z,1.00
2023-03-02T00:20:06.370Z,1.67
2023-03-02T00:21:09.555Z,1.57
2023-03-02T00:22:12.934Z,0.14
2023-03-02T00:23:16.229Z,0.43
2023-03-02T00:24:19.526Z,1.00
2023-03-02T00:25:22.828Z,0.86
2023-03-02T00:26:26.178Z,1.00
2023-03-02T00:27:29.354Z,1.00
2023-03-02T00:28:32.749Z,3.43
2023-03-02T00:29:35.950Z,2.57
2023-03-02T00:30:39.219Z,1.83
2023-03-02T00:31:42.444Z,3.00
2023-03-02T00:32:45.689Z,1.33
2023-03-02T00:33:48.984Z,1.33
2023-03-02T00:34:52.047Z,1.67
2023-03-02T00:35:55.365Z,1.00
2023-03-02T00:36:58.589Z,0.00
2023-03-02T00:38:01.892Z,0.00
2023-03-02T00:39:05.538Z,0.43
2023-03-02T00:40:09.282Z,0.71
2023-03-02T00:41:12.445Z,0.57
2023-03-02T00:42:15.645Z,0.00
2023-03-02T00:43:19.233Z,0.29
2023-03-02T00:44:22.614Z,1.00
2023-03-02T00:45:25.736Z,1.00
2023-03-02T00:46:29.040Z,1.00
2023-03-02T00:47:32.472Z,1.33
2023-03-02T00:48:35.767Z,3.86
2023-03-02T00:49:39.048Z,6.71
2023-03-02T00:50:43.032Z,6.14
2023-03-02T00:51:46.292Z,1.14
2023-03-02T00:52:49.544Z,1.00
2023-03-02T00:53:52.795Z,1.00
2023-03-02T00:54:56.295Z,0.67
2023-03-02T00:55:59.670Z,0.43
2023-03-02T00:57:03.671Z,0.57
2023-03-02T00:58:07.189Z,0.00
2023-03-02T00:59:10.486Z,0.43
2023-03-02T01:00:13.926Z,0.14
2023-03-02T01:01:18.778Z,0.43
2023-03-02T01:02:22.157Z,0.50
2023-03-02T01:03:25.450Z,0.00
2023-03-02T01:04:28.709Z,0.00
2023-03-02T01:05:32.227Z,0.00
2023-03-02T01:06:35.519Z,0.00
2023-03-02T01:07:39.096Z,0.43
2023-03-02T01:08:42.424Z,0.57
2023-03-02T01:09:46.013Z,0.00
2023-03-02T01:10:49.550Z,0.00
2023-03-02T01:11:53.169Z,0.00
2023-03-02T01:12:56.931Z,0.43
2023-03-02T01:14:00.522Z,0.75
2023-03-02T01:15:04.115Z,1.00
2023-03-02T01:16:07.653Z,1.00
2023-03-02T01:17:10.894Z,0.57
2023-03-02T01:18:14.081Z,0.00
2023-03-02T01:19:17.298Z,0.00
2023-03-02T01:20:20.945Z,0.00
2023-03-02T01:21:24.537Z,0.00
2023-03-02T01:22:28.202Z,0.00
2023-03-02T01:23:31.712Z,0.00
2023-03-02T01:24:35.211Z,0.00
2023-03-02T01:25:38.651Z,0.00
2023-03-02T01:26:42.096Z,0.00
2023-03-02T01:27:45.631Z,0.00
2023-03-02T01:28:50.013Z,0.00
2023-03-02T01:29:53.484Z,0.00
2023-03-02T01:30:57.091Z,0.00
2023-03-02T01:32:00.864Z,0.00
2023-03-02T01:33:04.569Z,0.00
2023-03-02T01:34:07.947Z,0.00
2023-03-02T01:35:11.543Z,0.00
2023-03-02T01:36:15.024Z,0.00
2023-03-02T01:37:18.526Z,0.00
2023-03-02T01:38:22.199Z,0.00
2023-03-02T01:39:25.693Z,0.00
2023-03-02T01:40:29.292Z,1.00
2023-03-02T01:41:32.501Z,0.29
2023-03-02T01:42:35.755Z,0.00
2023-03-02T01:43:38.814Z,0.00
2023-03-02T01:44:41.948Z,0.00
2023-03-02T01:45:45.393Z,0.00
2023-03-02T01:46:49.101Z,0.43
2023-03-02T01:47:52.698Z,0.50
2023-03-02T01:48:56.288Z,0.00
2023-03-02T01:49:59.660Z,0.00
2023-03-02T01:51:03.053Z,0.14
2023-03-02T01:52:06.241Z,0.29
2023-03-02T01:53:09.620Z,0.17
2023-03-02T01:54:12.804Z,0.43
2023-03-02T01:55:15.925Z,0.00
2023-03-02T01:56:19.272Z,0.43
2023-03-02T01:57:22.548Z,0.57
2023-03-02T01:58:25.592Z,0.57
2023-03-02T01:59:28.911Z,0.00
2023-03-02T02:00:31.997Z,0.14
2023-03-02T02:01:35.070Z,0.00
2023-03-02T02:02:38.358Z,0.00
2023-03-02T02:03:41.839Z,0.00
2023-03-02T02:04:45.436Z,0.00
2023-03-02T02:05:48.720Z,0.00
2023-03-02T02:06:52.215Z,0.00
2023-03-02T02:07:55.900Z,0.00
2023-03-02T02:08:59.491Z,0.00
2023-03-02T02:10:02.881Z,0.14
2023-03-02T02:11:06.487Z,0.57
2023-03-02T02:12:10.072Z,0.00
2023-03-02T02:13:13.757Z,0.00
2023-03-02T02:14:17.251Z,0.00
2023-03-02T02:15:20.737Z,0.00
2023-03-02T02:16:24.136Z,0.00
2023-03-02T02:17:27.655Z,0.00
2023-03-02T02:18:31.237Z,0.00
2023-03-02T02:19:34.318Z,0.00
2023-03-02T02:20:37.471Z,0.00
2023-03-02T02:21:40.681Z,0.00
2023-03-02T02:22:43.839Z,0.00
2023-03-02T02:23:47.334Z,0.00
2023-03-02T02:24:51.116Z,0.00
2023-03-02T02:25:54.557Z,0.00
2023-03-02T02:26:58.211Z,0.00
2023-03-02T02:28:01.484Z,0.00
2023-03-02T02:29:05.391Z,0.00
2023-03-02T02:30:08.866Z,0.00
2023-03-02T02:31:12.157Z,0.00
2023-03-02T02:32:15.592Z,0.00
2023-03-02T02:33:19.355Z,0.00
2023-03-02T02:34:22.625Z,0.43
2023-03-02T02:35:26.158Z,0.14
2023-03-02T02:36:29.756Z,0.00
2023-03-02T02:37:33.196Z,0.00
2023-03-02T02:38:36.818Z,0.00
2023-03-02T02:39:39.971Z,0.00
2023-03-02T02:40:43.320Z,0.00
2023-03-02T02:41:46.642Z,0.00
2023-03-02T02:42:49.919Z,0.00
2023-03-02T02:43:53.200Z,0.00
2023-03-02T02:44:56.510Z,0.00
2023-03-02T02:45:59.851Z,0.00
2023-03-02T02:47:03.384Z,0.00
2023-03-02T02:48:06.421Z,0.00
2023-03-02T02:49:09.733Z,0.00
2023-03-02T02:50:13.096Z,0.00
2023-03-02T02:51:16.289Z,0.00
2023-03-02T02:52:19.576Z,0.00
2023-03-02T02:53:22.996Z,0.00
2023-03-02T02:54:26.253Z,0.00
2023-03-02T02:55:29.499Z,0.00
2023-03-02T02:56:33.173Z,0.00
2023-03-02T02:57:36.612Z,0.00
2023-03-02T02:58:39.897Z,0.00
2023-03-02T02:59:42.974Z,0.00
2023-03-02T03:00:46.052Z,0.00
2023-03-02T03:01:49.363Z,0.00
2023-03-02T03:02:52.731Z,0.00
2023-03-02T03:03:55.933Z,0.00
2023-03-02T03:04:59.196Z,0.00
2023-03-02T03:06:02.376Z,0.00
2023-03-02T03:07:05.767Z,0.00
2023-03-02T03:08:12.319Z,0.00
2023-03-02T03:09:15.738Z,0.00
2023-03-02T03:10:18.992Z,0.00
2023-03-02T03:11:22.165Z,0.00
2023-03-02T03:12:25.665Z,0.00
2023-03-02T03:13:29.195Z,0.00
2023-03-02T03:14:32.328Z,0.00
2023-03-02T03:15:35.741Z,0.00
2023-03-02T03:16:39.252Z,0.00
2023-03-02T03:17:42.784Z,0.00
2023-03-02T03:18:46.093Z,0.00
2023-03-02T03:19:49.427Z,0.00
2023-03-02T03:20:52.967Z,0.00
2023-03-02T03:21:56.617Z,0.29
2023-03-02T03:23:00.104Z,0.00
2023-03-02T03:24:03.738Z,0.00
2023-03-02T03:25:07.128Z,0.00
2023-03-02T03:26:10.618Z,0.00
2023-03-02T03:27:13.815Z,0.00
2023-03-02T03:28:17.239Z,0.00
2023-03-02T03:29:20.670Z,0.00
2023-03-02T03:30:24.253Z,0.00
2023-03-02T03:31:27.652Z,0.00
2023-03-02T03:32:31.197Z,0.00
2023-03-02T03:33:34.480Z,0.00
2023-03-02T03:34:37.823Z,0.00
2023-03-02T03:35:41.361Z,0.00
2023-03-02T03:36:45.085Z,0.00
2023-03-02T03:37:48.335Z,0.00
2023-03-02T03:38:51.417Z,0.00
2023-03-02T03:39:54.949Z,0.00
2023-03-02T03:40:58.366Z,0.00
2023-03-02T03:42:01.926Z,0.00
2023-03-02T03:43:05.300Z,0.00
2023-03-02T03:44:08.809Z,0.00
2023-03-02T03:45:12.403Z,0.00
2023-03-02T03:46:15.762Z,0.00
2023-03-02T03:47:19.158Z,0.00
2023-03-02T03:48:22.443Z,0.00
2023-03-02T03:49:25.836Z,0.00
2023-03-02T03:50:29.225Z,0.00
2023-03-02T03:51:32.604Z,0.00
2023-03-02T03:52:36.097Z,0.00
2023-03-02T03:53:39.502Z,0.00
2023-03-02T03:54:42.861Z,0.00
2023-03-02T03:55:46.456Z,0.00
2023-03-02T03:56:49.937Z,0.00
2023-03-02T03:57:53.327Z,0.00
2023-03-02T03:58:56.605Z,0.67
2023-03-02T04:00:00.118Z,0.00
2023-03-02T04:01:03.511Z,0.00
2023-03-02T04:02:06.868Z,0.00
2023-03-02T04:03:10.128Z,0.00
2023-03-02T04:04:13.440Z,0.00
2023-03-02T04:05:16.835Z,0.00
2023-03-02T04:06:20.427Z,0.00
2023-03-02T04:07:24.005Z,0.00
2023-03-02T04:08:27.604Z,0.00
2023-03-02T04:09:31.095Z,0.00
2023-03-02T04:10:34.588Z,0.00
2023-03-02T04:11:37.966Z,0.00
2023-03-02T04:12:41.884Z,0.00
2023-03-02T04:13:45.335Z,0.00
2023-03-02T04:14:48.534Z,0.00
2023-03-02T04:15:51.986Z,0.00
2023-03-02T04:16:55.392Z,0.00
2023-03-02T04:17:58.825Z,0.14
2023-03-02T04:19:02.286Z,0.00
2023-03-02T04:20:05.878Z,0.00
2023-03-02T04:21:09.462Z,0.00
2023-03-02T04:22:12.851Z,0.00
2023-03-02T04:23:16.172Z,0.00
2023-03-02T04:24:19.430Z,0.00
2023-03-02T04:25:22.830Z,0.00
2023-03-02T04:26:26.301Z,0.00
2023-03-02T04:27:29.441Z,0.43
2023-03-02T04:28:32.670Z,0.57
2023-03-02T04:29:36.275Z,0.00
2023-03-02T04:30:39.556Z,0.00
2023-03-02T04:31:42.628Z,0.00
2023-03-02T04:32:45.784Z,0.00
2023-03-02T04:33:48.886Z,0.00
2023-03-02T04:34:52.177Z,0.00
2023-03-02T04:35:55.590Z,0.00
2023-03-02T04:36:58.758Z,0.00
2023-03-02T04:38:01.801Z,0.00
2023-03-02T04:39:04.910Z,0.00
2023-03-02T04:40:08.081Z,0.00
2023-03-02T04:41:11.497Z,0.00
2023-03-02T04:42:14.853Z,0.00
2023-03-02T04:43:18.243Z,0.00
2023-03-02T04:44:21.850Z,0.00
2023-03-02T04:45:25.014Z,0.00
2023-03-02T04:46:28.501Z,0.00
2023-03-02T04:47:31.798Z,0.00
2023-03-02T04:48:35.740Z,0.00
2023-03-02T04:49:38.954Z,0.00
2023-03-02T04:50:42.559Z,0.00
2023-03-02T04:51:45.954Z,0.00
2023-03-02T04:52:49.439Z,0.00
2023-03-02T04:53:52.824Z,0.43
2023-03-02T04:54:56.422Z,0.86
2023-03-02T04:56:00.224Z,0.43
2023-03-02T04:57:03.618Z,0.14
2023-03-02T04:58:07.153Z,0.00
2023-03-02T04:59:10.682Z,0.00
2023-03-02T05:00:14.182Z,0.00
2023-03-02T05:01:17.971Z,0.00
2023-03-02T05:02:21.467Z,0.00
2023-03-02T05:03:24.848Z,0.00
2023-03-02T05:04:28.158Z,0.00
2023-03-02T05:05:31.823Z,0.00
2023-03-02T05:06:35.821Z,0.50
2023-03-02T05:07:39.541Z,0.00
2023-03-02T05:08:42.866Z,0.00
2023-03-02T05:09:46.495Z,0.00
2023-03-02T05:10:49.161Z,0.00
2023-03-02T05:11:52.028Z,0.00
2023-03-02T05:12:54.914Z,0.00
2023-03-02T05:13:57.718Z,0.00
2023-03-02T05:15:00.524Z,0.00
2023-03-02T05:16:03.370Z,0.00
2023-03-02T05:17:06.215Z,0.00
2023-03-02T05:18:08.934Z,0.00
2023-03-02T05:19:12.308Z,0.00
2023-03-02T05:20:15.234Z,0.00
2023-03-02T05:21:18.334Z,0.00
2023-03-02T05:22:20.995Z,0.00
2023-03-02T05:23:25.225Z,0.00
2023-03-02T05:24:27.994Z,0.00
2023-03-02T05:25:30.978Z,0.00
2023-03-02T05:26:34.137Z,0.00
2023-03-02T05:27:37.299Z,0.00
2023-03-02T05:28:40.406Z,0.00
2023-03-02T05:29:43.284Z,0.43
2023-03-02T05:30:46.130Z,0.33
2023-03-02T05:31:49.093Z,0.00
2023-03-02T05:32:52.085Z,0.00
2023-03-02T05:33:54.730Z,0.00
2023-03-02T05:34:57.675Z,0.00
2023-03-02T05:36:00.595Z,0.00
2023-03-02T05:37:03.454Z,0.00
2023-03-02T05:38:06.204Z,0.00
2023-03-02T05:39:08.797Z,0.00
2023-03-02T05:40:11.412Z,0.00
2023-03-02T05:41:14.003Z,0.00
2023-03-02T05:42:16.656Z,0.00
2023-03-02T05:43:22.272Z,0.00
2023-03-02T05:44:24.885Z,0.00
2023-03-02T05:45:27.518Z,0.00
2023-03-02T05:46:30.433Z,0.00
2023-03-02T05:47:33.452Z,0.00
2023-03-02T05:48:36.540Z,0.00
2023-03-02T05:49:39.319Z,0.00
2023-03-02T05:50:42.136Z,0.00
2023-03-02T05:51:45.013Z,0.00
2023-03-02T05:52:47.994Z,0.00
2023-03-02T05:53:50.796Z,0.00
2023-03-02T05:54:53.792Z,0.00
2023-03-02T05:55:56.495Z,0.00
2023-03-02T05:56:59.280Z,0.00
2023-03-02T05:58:02.126Z,0.17
2023-03-02T05:59:05.202Z,0.67
2023-03-02T06:00:08.032Z,0.00
2023-03-02T06:01:11.488Z,0.00
2023-03-02T06:02:14.905Z,0.00
2023-03-02T06:03:17.767Z,0.00
2023-03-02T06:04:20.730Z,0.00
2023-03-02T06:05:23.548Z,0.00
2023-03-02T06:06:26.496Z,0.00
2023-03-02T06:07:29.327Z,0.00
2023-03-02T06:08:32.137Z,0.00
2023-03-02T06:09:35.029Z,0.00
2023-03-02T06:10:37.906Z,0.00
2023-03-02T06:11:40.788Z,0.00
2023-03-02T06:12:43.321Z,0.00
2023-03-02T06:13:46.243Z,0.00
2023-03-02T06:14:49.265Z,0.00
2023-03-02T06:15:52.181Z,0.00
2023-03-02T06:16:54.813Z,0.00
2023-03-02T06:17:57.763Z,0.00
2023-03-02T06:19:00.614Z,0.00
2023-03-02T06:20:03.706Z,0.33
2023-03-02T06:21:06.559Z,0.83
2023-03-02T06:22:09.489Z,0.00
2023-03-02T06:23:12.447Z,0.00
2023-03-02T06:24:15.036Z,0.00
2023-03-02T06:25:17.759Z,0.00
2023-03-02T06:26:20.477Z,0.00
2023-03-02T06:27:23.121Z,0.00
2023-03-02T06:28:25.757Z,0.00
2023-03-02T06:29:28.293Z,0.00
2023-03-02T06:30:31.056Z,0.00
2023-03-02T06:31:33.885Z,0.00
2023-03-02T06:32:37.261Z,0.00
2023-03-02T06:33:40.844Z,0.00
2023-03-02T06:34:43.602Z,0.00
2023-03-02T06:35:47.010Z,0.00
2023-03-02T06:36:49.883Z,0.00
2023-03-02T06:37:52.744Z,0.00
2023-03-02T06:38:55.523Z,0.67
2023-03-02T06:39:58.425Z,0.67
2023-03-02T06:41:01.321Z,0.00
2023-03-02T06:42:04.250Z,0.50
2023-03-02T06:43:07.287Z,0.33
2023-03-02T06:44:10.093Z,0.00
2023-03-02T06:45:12.933Z,0.00
2023-03-02T06:46:15.910Z,0.00
2023-03-02T06:47:18.766Z,0.00
2023-03-02T06:48:21.778Z,0.33
2023-03-02T06:49:24.601Z,0.29
2023-03-02T06:50:27.482Z,0.00
2023-03-02T06:51:30.456Z,0.00
2023-03-02T06:52:33.322Z,0.43
2023-03-02T06:53:36.162Z,0.00
2023-03-02T06:54:39.136Z,0.00
2023-03-02T06:55:42.051Z,0.00
2023-03-02T06:56:44.999Z,0.00
2023-03-02T06:57:47.943Z,0.00
2023-03-02T06:58:51.004Z,0.00
2023-03-02T06:59:53.888Z,0.00
2023-03-02T07:00:56.781Z,0.00
2023-03-02T07:01:59.842Z,0.00
2023-03-02T07:03:02.818Z,0.29
2023-03-02T07:04:05.880Z,0.00
2023-03-02T07:05:08.772Z,0.33
2023-03-02T07:06:11.644Z,0.33
2023-03-02T07:07:14.512Z,0.29
2023-03-02T07:08:17.363Z,0.00
2023-03-02T07:09:20.232Z,0.00
2023-03-02T07:10:23.056Z,0.00
2023-03-02T07:11:25.785Z,0.33
2023-03-02T07:12:28.912Z,0.67
2023-03-02T07:13:31.862Z,0.00
2023-03-02T07:14:34.570Z,0.43
2023-03-02T07:15:37.407Z,0.67
2023-03-02T07:16:40.417Z,1.00
2023-03-02T07:17:43.509Z,0.57
2023-03-02T07:18:46.513Z,0.00
2023-03-02T07:19:49.130Z,0.33
2023-03-02T07:20:51.718Z,0.00
2023-03-02T07:21:54.476Z,0.00
2023-03-02T07:22:57.382Z,0.00
2023-03-02T07:24:00.190Z,0.17
2023-03-02T07:25:02.808Z,0.00
2023-03-02T07:26:05.437Z,0.33
2023-03-02T07:27:08.312Z,0.67
2023-03-02T07:28:11.125Z,0.00
2023-03-02T07:29:13.926Z,0.17
2023-03-02T07:30:16.863Z,0.00
2023-03-02T07:31:19.655Z,0.33
2023-03-02T07:32:22.584Z,0.17
2023-03-02T07:33:26.510Z,0.00
2023-03-02T07:34:29.326Z,0.00
2023-03-02T07:35:32.208Z,0.00
2023-03-02T07:36:35.089Z,0.00
2023-03-02T07:37:37.995Z,0.00
2023-03-02T07:38:40.809Z,0.00
2023-03-02T07:39:44.785Z,0.00
2023-03-02T07:40:47.863Z,0.00
2023-03-02T07:41:50.913Z,0.00
2023-03-02T07:42:53.977Z,0.00
2023-03-02T07:43:56.921Z,0.00
2023-03-02T07:44:59.718Z,0.33
2023-03-02T07:46:02.704Z,0.57
2023-03-02T07:47:05.706Z,0.00
2023-03-02T07:48:08.578Z,0.00
2023-03-02T07:49:11.943Z,0.83
2023-03-02T07:50:14.839Z,0.57
2023-03-02T07:51:17.759Z,0.00
2023-03-02T07:52:20.720Z,0.33
2023-03-02T07:53:23.634Z,0.33
2023-03-02T07:54:26.655Z,1.00
2023-03-02T07:55:30.015Z,1.00
2023-03-02T07:56:32.799Z,0.57
2023-03-02T07:57:35.735Z,0.00
2023-03-02T07:58:38.624Z,0.00
2023-03-02T07:59:41.809Z,0.00
2023-03-02T08:00:44.674Z,0.00
2023-03-02T08:01:50.672Z,0.33
2023-03-02T08:02:53.699Z,0.62
2023-03-02T08:03:56.635Z,0.29
2023-03-02T08:04:59.912Z,0.33
2023-03-02T08:06:02.821Z,0.57
2023-03-02T08:07:05.713Z,0.33
2023-03-02T08:08:08.580Z,0.57
2023-03-02T08:09:11.419Z,0.00
2023-03-02T08:10:14.246Z,0.86
2023-03-02T08:11:17.179Z,1.00
2023-03-02T08:12:20.153Z,1.00
2023-03-02T08:13:23.035Z,0.29
2023-03-02T08:14:26.111Z,0.00
2023-03-02T08:15:28.967Z,0.33
2023-03-02T08:16:32.084Z,0.57
2023-03-02T08:17:35.223Z,0.00
2023-03-02T08:18:38.122Z,0.43
2023-03-02T08:19:40.978Z,1.00
2023-03-02T08:20:43.892Z,1.00
2023-03-02T08:21:46.720Z,1.00
2023-03-02T08:22:49.355Z,1.00
2023-03-02T08:23:51.989Z,1.00
2023-03-02T08:24:54.743Z,1.00
2023-03-02T08:25:57.594Z,0.67
2023-03-02T08:27:00.213Z,0.00
2023-03-02T08:28:02.773Z,0.00
2023-03-02T08:29:05.482Z,0.00
2023-03-02T08:30:08.407Z,0.29
2023-03-02T08:31:11.591Z,0.33
2023-03-02T08:32:14.589Z,0.67
2023-03-02T08:33:17.468Z,0.83
2023-03-02T08:34:20.406Z,0.71
2023-03-02T08:35:23.421Z,0.33
2023-03-02T08:36:26.390Z,0.00
2023-03-02T08:37:29.243Z,0.57
2023-03-02T08:38:32.252Z,1.00
2023-03-02T08:39:35.197Z,1.00
2023-03-02T08:40:38.092Z,0.00
2023-03-02T08:41:41.209Z,0.17
2023-03-02T08:42:44.053Z,1.00
2023-03-02T08:43:46.911Z,0.57
2023-03-02T08:44:49.978Z,0.00
2023-03-02T08:45:52.847Z,0.00
2023-03-02T08:46:55.850Z,0.43
2023-03-02T08:47:58.727Z,0.86
2023-03-02T08:49:01.592Z,1.33
2023-03-02T08:50:04.589Z,1.57
2023-03-02T08:51:07.410Z,0.67
2023-03-02T08:52:10.516Z,1.00
2023-03-02T08:53:13.394Z,0.00
2023-03-02T08:54:16.277Z,0.83
2023-03-02T08:55:19.087Z,1.00
2023-03-02T08:56:22.007Z,0.71
2023-03-02T08:57:25.077Z,1.00
2023-03-02T08:58:28.011Z,0.57
2023-03-02T08:59:30.758Z,1.00
2023-03-02T09:00:33.319Z,0.67
2023-03-02T09:01:36.371Z,0.33
2023-03-02T09:02:39.423Z,0.86
2023-03-02T09:03:42.167Z,0.67
2023-03-02T09:04:44.963Z,0.83
2023-03-02T09:05:47.706Z,1.00
2023-03-02T09:06:50.332Z,0.67
2023-03-02T09:07:53.197Z,1.00
2023-03-02T09:08:55.722Z,0.00
2023-03-02T09:09:58.606Z,0.67
2023-03-02T09:11:01.483Z,1.33
2023-03-02T09:12:04.413Z,0.43
2023-03-02T09:13:08.527Z,1.00
2023-03-02T09:14:11.399Z,0.75
2023-03-02T09:15:14.752Z,1.00
2023-03-02T09:16:17.668Z,1.14
2023-03-02T09:17:20.645Z,0.57
2023-03-02T09:18:23.668Z,0.33
2023-03-02T09:19:26.568Z,1.00
2023-03-02T09:20:29.589Z,0.57
2023-03-02T09:21:32.689Z,0.29
2023-03-02T09:22:35.750Z,1.00
2023-03-02T09:23:38.745Z,1.00
2023-03-02T09:24:41.602Z,0.33
2023-03-02T09:25:46.322Z,0.86
2023-03-02T09:26:48.803Z,0.75
2023-03-02T09:27:51.702Z,0.33
2023-03-02T09:28:54.705Z,1.00
2023-03-02T09:29:57.499Z,1.00
2023-03-02T09:31:00.488Z,0.67
2023-03-02T09:32:03.463Z,0.33
2023-03-02T09:33:06.476Z,0.71
2023-03-02T09:34:09.644Z,0.33
2023-03-02T09:35:12.556Z,0.00
2023-03-02T09:36:15.437Z,0.67
2023-03-02T09:37:18.315Z,1.29
2023-03-02T09:38:21.234Z,1.00
2023-03-02T09:39:24.283Z,1.00
2023-03-02T09:40:27.236Z,0.00
2023-03-02T09:41:30.240Z,0.83
2023-03-02T09:42:43.589Z,1.00
2023-03-02T09:43:37.382Z,1.00
2023-03-02T09:44:40.476Z,0.57
2023-03-02T09:45:43.366Z,0.00
2023-03-02T09:46:46.249Z,0.33
2023-03-02T09:47:49.215Z,0.83
2023-03-02T09:48:52.047Z,0.86
2023-03-02T09:49:54.979Z,1.67
2023-03-02T09:50:58.046Z,1.00
2023-03-02T09:52:00.873Z,0.57
2023-03-02T09:53:03.905Z,1.00
2023-03-02T09:54:07.176Z,0.14
2023-03-02T09:55:10.444Z,0.00
2023-03-02T09:56:13.137Z,0.43
2023-03-02T09:57:16.009Z,0.50
2023-03-02T09:58:18.923Z,0.67
2023-03-02T09:59:21.904Z,0.43
2023-03-02T10:00:24.704Z,0.67
2023-03-02T10:01:27.579Z,0.00
2023-03-02T10:02:30.491Z,0.33
2023-03-02T10:03:33.452Z,1.43
2023-03-02T10:04:36.474Z,2.00
2023-03-02T10:05:42.397Z,1.17
2023-03-02T10:06:45.568Z,1.00
2023-03-02T10:07:48.563Z,1.00
2023-03-02T10:08:51.541Z,0.83
2023-03-02T10:09:54.269Z,1.00
2023-03-02T10:10:56.917Z,1.00
2023-03-02T10:11:59.730Z,0.71
2023-03-02T10:13:02.380Z,2.00
2023-03-02T10:14:05.000Z,3.00
2023-03-02T10:15:07.718Z,0.17
2023-03-02T10:16:10.378Z,1.00
2023-03-02T10:17:13.228Z,0.50
2023-03-02T10:18:15.907Z,1.00
2023-03-02T10:19:18.533Z,1.00
2023-03-02T10:20:21.105Z,1.00
2023-03-02T10:21:24.131Z,1.00
2023-03-02T10:22:26.912Z,0.67
2023-03-02T10:23:29.704Z,0.17
2023-03-02T10:24:32.682Z,0.00
2023-03-02T10:25:35.622Z,0.86
2023-03-02T10:26:38.560Z,1.00
2023-03-02T10:27:41.485Z,1.00
2023-03-02T10:28:44.382Z,0.57
2023-03-02T10:29:47.359Z,1.00
2023-03-02T10:30:50.188Z,0.71
2023-03-02T10:31:53.240Z,0.67
2023-03-02T10:32:56.081Z,1.00
2023-03-02T10:33:58.830Z,0.67
2023-03-02T10:35:01.732Z,0.67
2023-03-02T10:36:04.415Z,0.00
2023-03-02T10:37:07.580Z,0.33
2023-03-02T10:38:10.326Z,1.00
2023-03-02T10:39:12.907Z,0.86
2023-03-02T10:40:15.540Z,0.67
2023-03-02T10:41:18.440Z,0.00
2023-03-02T10:42:21.581Z,0.43
2023-03-02T10:43:24.620Z,0.57
2023-03-02T10:44:27.370Z,1.33
2023-03-02T10:45:30.214Z,1.00
2023-03-02T10:46:33.483Z,0.67
2023-03-02T10:47:36.605Z,0.86
2023-03-02T10:48:41.029Z,1.33
2023-03-02T10:49:43.344Z,1.00
2023-03-02T10:50:46.209Z,0.57
2023-03-02T10:51:49.034Z,0.67
2023-03-02T10:52:59.772Z,0.71
2023-03-02T10:53:55.889Z,0.50
2023-03-02T10:54:58.776Z,0.33
2023-03-02T10:56:01.640Z,0.71
2023-03-02T10:57:04.791Z,1.00
2023-03-02T10:58:07.562Z,1.00
2023-03-02T10:59:10.365Z,1.33
2023-03-02T11:00:13.202Z,1.00
2023-03-02T11:01:16.166Z,0.17
2023-03-02T11:02:18.814Z,0.29
2023-03-02T11:03:21.649Z,0.67
2023-03-02T11:04:24.821Z,0.50
2023-03-02T11:05:27.527Z,1.00
2023-03-02T11:06:30.207Z,0.67
2023-03-02T11:07:32.779Z,0.67
2023-03-02T11:08:35.621Z,0.17
2023-03-02T11:09:39.511Z,0.33
2023-03-02T11:10:42.518Z,0.50
2023-03-02T11:11:45.594Z,0.00
2023-03-02T11:12:48.309Z,0.67
2023-03-02T11:13:51.109Z,1.33
2023-03-02T11:14:54.357Z,2.00
2023-03-02T11:15:57.087Z,0.86
2023-03-02T11:17:01.020Z,0.86
2023-03-02T11:18:04.196Z,1.00
2023-03-02T11:19:07.325Z,0.83
2023-03-02T11:20:10.240Z,1.00
2023-03-02T11:21:13.325Z,0.57
2023-03-02T11:22:16.172Z,0.00
2023-03-02T11:23:23.507Z,0.33
2023-03-02T11:24:26.502Z,1.00
2023-03-02T11:25:29.227Z,0.29
2023-03-02T11:26:31.881Z,0.33
2023-03-02T11:27:34.521Z,0.43
2023-03-02T11:28:37.156Z,1.00
2023-03-02T11:29:39.758Z,0.67
2023-03-02T11:30:42.420Z,0.67
2023-03-02T11:31:45.163Z,0.50
2023-03-02T11:32:47.886Z,0.00
2023-03-02T11:33:50.609Z,0.57
2023-03-02T11:34:53.764Z,0.00
2023-03-02T11:35:56.546Z,0.43
2023-03-02T11:36:59.168Z,0.67
2023-03-02T11:38:01.775Z,0.33
2023-03-02T11:39:04.470Z,0.83
2023-03-02T11:40:07.114Z,1.00
2023-03-02T11:41:09.791Z,0.33
2023-03-02T11:42:12.382Z,1.00
2023-03-02T11:43:15.046Z,0.17
2023-03-02T11:44:17.777Z,0.33
2023-03-02T11:45:20.537Z,0.00
2023-03-02T11:46:24.743Z,0.43
2023-03-02T11:47:27.407Z,0.71
2023-03-02T11:48:30.049Z,0.86
2023-03-02T11:49:33.118Z,1.00
2023-03-02T11:50:35.974Z,0.83
2023-03-02T11:51:42.352Z,1.00
2023-03-02T11:52:42.730Z,1.25
2023-03-02T11:53:45.418Z,0.50
2023-03-02T11:54:48.309Z,0.83
2023-03-02T11:55:51.370Z,0.83
2023-03-02T11:56:54.346Z,0.57
2023-03-02T11:57:57.320Z,0.83
2023-03-02T11:59:00.353Z,0.83
2023-03-02T12:00:03.175Z,1.00
2023-03-02T12:01:06.119Z,0.71
2023-03-02T12:02:08.973Z,1.17
2023-03-02T12:03:11.935Z,0.57
2023-03-02T12:04:14.808Z,0.33
2023-03-02T12:05:18.167Z,1.00
2023-03-02T12:06:21.395Z,0.71
2023-03-02T12:07:24.294Z,0.43
2023-03-02T12:08:26.879Z,0.43
2023-03-02T12:09:29.593Z,1.00
2023-03-02T12:10:32.676Z,1.43
2023-03-02T12:11:35.751Z,1.83
2023-03-02T12:12:38.700Z,1.00
2023-03-02T12:13:41.554Z,1.00
2023-03-02T12:14:44.609Z,0.83
2023-03-02T12:15:47.531Z,0.86
2023-03-02T12:16:50.605Z,0.14
2023-03-02T12:17:53.626Z,0.29
2023-03-02T12:18:56.580Z,1.00
2023-03-02T12:19:59.509Z,1.00
2023-03-02T12:21:02.378Z,0.29
2023-03-02T12:22:05.438Z,0.33
2023-03-02T12:23:08.332Z,1.00
2023-03-02T12:24:11.162Z,0.14
2023-03-02T12:25:13.988Z,0.83
2023-03-02T12:26:16.975Z,0.86
2023-03-02T12:27:20.037Z,0.00
2023-03-02T12:28:22.957Z,0.00
2023-03-02T12:29:25.876Z,0.43
2023-03-02T12:30:28.791Z,1.00
2023-03-02T12:31:31.674Z,0.00
2023-03-02T12:32:34.854Z,0.43
2023-03-02T12:33:37.821Z,0.43
2023-03-02T12:34:40.701Z,1.00
2023-03-02T12:35:43.654Z,0.67
2023-03-02T12:36:46.507Z,1.00
2023-03-02T12:37:49.802Z,0.33
2023-03-02T12:38:52.630Z,0.57
2023-03-02T12:39:55.513Z,0.86
2023-03-02T12:40:58.182Z,1.67
2023-03-02T12:42:00.948Z,0.00
2023-03-02T12:43:04.075Z,0.33
2023-03-02T12:44:07.122Z,1.57
2023-03-02T12:45:09.978Z,2.14
2023-03-02T12:46:13.032Z,1.00
2023-03-02T12:47:16.290Z,1.00
2023-03-02T12:48:20.035Z,0.50
2023-03-02T12:49:22.958Z,0.57
2023-03-02T12:50:25.924Z,0.33
2023-03-02T12:51:28.834Z,0.67
2023-03-02T12:52:31.955Z,0.14
2023-03-02T12:53:35.030Z,1.00
2023-03-02T12:54:37.900Z,1.00
2023-03-02T12:55:40.565Z,1.00
2023-03-02T12:56:43.284Z,1.33
2023-03-02T12:57:45.970Z,1.33
2023-03-02T12:58:48.681Z,0.67
2023-03-02T12:59:51.329Z,0.67
2023-03-02T13:00:53.987Z,0.83
2023-03-02T13:01:56.660Z,0.17
2023-03-02T13:02:59.510Z,0.43
2023-03-02T13:04:02.553Z,0.67
2023-03-02T13:05:05.137Z,0.33
2023-03-02T13:06:07.721Z,0.17
2023-03-02T13:07:10.400Z,1.00
2023-03-02T13:08:13.237Z,1.33
2023-03-02T13:09:16.301Z,2.00
2023-03-02T13:10:19.165Z,1.67
2023-03-02T13:11:22.087Z,0.14
2023-03-02T13:12:24.977Z,0.33
2023-03-02T13:13:27.779Z,0.14
2023-03-02T13:14:30.817Z,1.33
2023-03-02T13:15:33.639Z,0.67
2023-03-02T13:16:36.868Z,0.43
2023-03-02T13:17:40.121Z,0.71
2023-03-02T13:18:43.414Z,0.43
2023-03-02T13:19:46.484Z,1.00
2023-03-02T13:20:49.275Z,1.00
2023-03-02T13:21:52.142Z,1.50
2023-03-02T13:22:55.116Z,1.43
2023-03-02T13:23:58.038Z,0.67
2023-03-02T13:25:01.337Z,1.00
2023-03-02T13:26:04.240Z,0.57
2023-03-02T13:27:07.092Z,0.43
2023-03-02T13:28:10.035Z,1.00
2023-03-02T13:29:12.814Z,1.00
2023-03-02T13:30:15.949Z,0.17
2023-03-02T13:31:18.959Z,1.00
2023-03-02T13:32:22.020Z,1.00
2023-03-02T13:33:24.909Z,1.00
2023-03-02T13:34:27.872Z,1.00
2023-03-02T13:35:31.015Z,0.00
2023-03-02T13:36:34.247Z,0.43
2023-03-02T13:37:37.304Z,1.00
2023-03-02T13:38:40.111Z,0.86
2023-03-02T13:39:42.893Z,0.83
2023-03-02T13:40:45.915Z,0.57
2023-03-02T13:41:48.727Z,1.00
2023-03-02T13:42:51.585Z,1.00
2023-03-02T13:43:54.415Z,1.00
2023-03-02T13:44:57.191Z,1.00
2023-03-02T13:46:00.193Z,1.00
2023-03-02T13:47:03.133Z,1.00
2023-03-02T13:48:05.916Z,1.00
2023-03-02T13:49:10.566Z,1.33
2023-03-02T13:50:12.900Z,2.00
2023-03-02T13:51:15.564Z,1.00
2023-03-02T13:52:18.198Z,1.00
2023-03-02T13:53:21.043Z,1.00
2023-03-02T13:54:23.898Z,1.33
2023-03-02T13:55:26.510Z,1.43
2023-03-02T13:56:29.592Z,1.67
2023-03-02T13:57:32.553Z,1.43
2023-03-02T13:58:35.207Z,1.67
2023-03-02T13:59:38.157Z,1.00